createdAt,value
2018-08-12T00:01:35.651Z,101300.25
2018-08-12T00:04:04.266Z,101299.25
2018-08-12T00:06:32.592Z,101302.29
2018-08-12T00:09:01.500Z,101301.82
2018-08-12T00:11:29.820Z,101285.35
2018-08-12T00:13:57.544Z,101280.34
2018-08-12T00:16:25.857Z,101297.48
2018-08-12T00:18:54.751Z,101281.13
2018-08-12T00:21:23.073Z,101289.69
2018-08-12T00:23:50.803Z,101297.52
2018-08-12T00:26:19.699Z,101291.46
2018-08-12T00:28:47.470Z,101287.08
2018-08-12T00:31:16.369Z,101290.82
2018-08-12T00:33:44.119Z,101307.57
2018-08-12T00:36:13.013Z,101300.64
2018-08-12T00:38:41.327Z,101303.54
2018-08-12T00:41:09.065Z,101298.92
2018-08-12T00:43:37.377Z,101295.66
2018-08-12T00:46:06.280Z,101298.63
2018-08-12T00:48:34.015Z,101294.52
2018-08-12T00:51:02.335Z,101312.77
2018-08-12T00:53:31.229Z,101299.03
2018-08-12T00:55:59.537Z,101320.20
2018-08-12T00:58:27.592Z,101310.72
2018-08-12T01:00:56.484Z,101301.20
2018-08-12T01:03:24.808Z,101313.91
2018-08-12T01:05:52.549Z,101306.61
2018-08-12T01:08:22.218Z,101297.36
2018-08-12T01:10:50.530Z,101322.60
2018-08-12T01:13:18.278Z,101314.11
2018-08-12T01:15:46.609Z,101304.85
2018-08-12T01:18:14.926Z,101297.05
2018-08-12T01:20:43.240Z,101292.35
2018-08-12T01:23:11.559Z,101279.92
2018-08-12T01:25:40.470Z,101292.56
2018-08-12T01:28:08.787Z,101282.88
2018-08-12T01:30:36.585Z,101293.88
2018-08-12T01:33:04.901Z,101299.41
2018-08-12T01:35:33.797Z,101296.71
2018-08-12T01:38:01.531Z,101307.42
2018-08-12T01:40:30.253Z,101286.95
2018-08-12T01:42:58.569Z,101297.34
2018-08-12T01:45:26.893Z,101294.56
2018-08-12T01:47:55.792Z,101295.92
2018-08-12T01:50:23.526Z,101305.16
2018-08-12T01:52:51.843Z,101310.94
2018-08-12T01:55:20.745Z,101311.45
2018-08-12T01:57:48.470Z,101323.41
2018-08-12T02:00:17.376Z,101317.45
2018-08-12T02:02:45.683Z,101317.50
2018-08-12T02:05:13.994Z,101327.10
2018-08-12T02:07:41.730Z,101316.09
2018-08-12T02:10:10.539Z,101315.05
2018-08-12T02:12:38.950Z,101313.67
2018-08-12T02:15:07.257Z,101309.31
2018-08-12T02:17:35.008Z,101311.44
2018-08-12T02:20:03.914Z,101304.20
2018-08-12T02:22:32.269Z,101303.03
2018-08-12T02:24:59.969Z,101300.94
2018-08-12T02:27:29.160Z,101290.58
2018-08-12T02:29:57.488Z,101302.48
2018-08-12T02:32:25.945Z,101294.35
2018-08-12T02:34:53.677Z,101303.66
2018-08-12T02:37:23.085Z,101300.02
2018-08-12T02:39:50.823Z,101300.50
2018-08-12T02:42:19.149Z,101301.89
2018-08-12T02:44:48.029Z,101304.78
2018-08-12T02:47:15.765Z,101316.40
2018-08-12T02:49:44.078Z,101330.55
2018-08-12T02:52:12.972Z,101310.34
2018-08-12T02:54:40.703Z,101308.39
2018-08-12T02:57:09.019Z,101312.67
2018-08-12T02:59:37.342Z,101307.13
2018-08-12T03:02:05.657Z,101296.94
2018-08-12T03:04:34.556Z,101301.11
2018-08-12T03:07:02.284Z,101298.02
2018-08-12T03:09:31.185Z,101294.06
2018-08-12T03:11:59.516Z,101294.45
2018-08-12T03:14:27.828Z,101297.41
2018-08-12T03:16:56.137Z,101305.09
2018-08-12T03:19:24.454Z,101299.31
2018-08-12T03:21:53.553Z,101294.52
2018-08-12T03:24:21.363Z,101288.25
2018-08-12T03:26:49.893Z,101291.16
2018-08-12T03:29:17.638Z,101292.02
2018-08-12T03:31:45.973Z,101295.80
2018-08-12T03:34:14.893Z,101302.00
2018-08-12T03:36:43.207Z,101291.25
2018-08-12T03:39:12.122Z,101309.22
2018-08-12T03:41:40.958Z,101309.00
2018-08-12T03:44:08.916Z,101307.72
2018-08-12T03:46:37.294Z,101320.78
2018-08-12T03:49:05.548Z,101317.66
2018-08-12T03:51:33.861Z,101316.11
2018-08-12T03:54:03.662Z,101321.51
2018-08-12T03:56:31.439Z,101323.14
2018-08-12T03:59:00.292Z,101319.80
2018-08-12T04:01:28.030Z,101324.53
2018-08-12T04:03:56.359Z,101316.38
2018-08-12T04:06:25.271Z,101328.73
2018-08-12T04:08:53.001Z,101324.53
2018-08-12T04:11:21.896Z,101336.15
2018-08-12T04:13:49.628Z,101327.58
2018-08-12T04:16:17.951Z,101336.78
2018-08-12T04:18:46.844Z,101331.75
2018-08-12T04:21:14.576Z,101335.20
2018-08-12T04:23:43.363Z,101336.45
2018-08-12T04:26:11.776Z,101327.56
2018-08-12T04:28:40.104Z,101325.86
2018-08-12T04:31:07.861Z,101330.67
2018-08-12T04:33:36.772Z,101333.07
2018-08-12T04:36:04.737Z,101344.39
2018-08-12T04:38:33.446Z,101361.88
2018-08-12T04:41:01.173Z,101365.48
2018-08-12T04:43:29.491Z,101358.86
2018-08-12T04:45:57.809Z,101354.66
2018-08-12T04:48:26.690Z,101358.59
2018-08-12T04:50:54.675Z,101357.27
2018-08-12T04:53:23.320Z,101373.16
2018-08-12T04:55:51.062Z,101372.17
2018-08-12T04:58:19.965Z,101369.88
2018-08-12T05:00:48.290Z,101376.94
2018-08-12T05:03:16.028Z,101369.16
2018-08-12T05:05:44.929Z,101371.00
2018-08-12T05:08:13.248Z,101367.42
2018-08-12T05:10:41.573Z,101368.72
2018-08-12T05:13:09.903Z,101381.34
2018-08-12T05:15:37.625Z,101359.72
2018-08-12T05:18:06.533Z,101357.74
2018-08-12T05:20:34.841Z,101358.42
2018-08-12T05:23:03.674Z,101354.20
2018-08-12T05:25:31.425Z,101352.96
2018-08-12T05:27:59.737Z,101355.00
2018-08-12T05:30:28.637Z,101354.77
2018-08-12T05:32:56.958Z,101351.42
2018-08-12T05:35:25.278Z,101360.62
2018-08-12T05:37:53.061Z,101358.87
2018-08-12T05:40:21.380Z,101359.95
2018-08-12T05:42:49.695Z,101357.04
2018-08-12T05:45:18.593Z,101372.95
2018-08-12T05:47:46.331Z,101364.03
2018-08-12T05:50:14.645Z,101357.30
2018-08-12T05:52:43.542Z,101352.97
2018-08-12T05:55:11.279Z,101367.59
2018-08-12T05:57:39.590Z,101350.86
2018-08-12T06:00:07.908Z,101361.75
2018-08-12T06:02:36.959Z,101360.19
2018-08-12T06:05:04.704Z,101362.70
2018-08-12T06:07:33.032Z,101367.09
2018-08-12T06:10:01.356Z,101361.73
2018-08-12T06:12:29.673Z,101368.94
2018-08-12T06:14:58.569Z,101369.70
2018-08-12T06:17:26.379Z,101371.45
2018-08-12T06:19:55.210Z,101375.52
2018-08-12T06:22:23.527Z,101381.09
2018-08-12T06:24:51.262Z,101375.72
2018-08-12T06:27:19.691Z,101370.23
2018-08-12T06:29:47.921Z,101374.61
2018-08-12T06:32:16.497Z,101391.48
2018-08-12T06:34:44.829Z,101375.13
2018-08-12T06:37:13.723Z,101382.17
2018-08-12T06:39:42.093Z,101392.34
2018-08-12T06:42:10.419Z,101385.45
2018-08-12T06:44:38.743Z,101387.05
2018-08-12T06:47:07.049Z,101386.55
2018-08-12T06:49:34.808Z,101404.13
2018-08-12T06:52:07.736Z,101393.66
2018-08-12T06:54:35.752Z,101399.36
2018-08-12T06:57:04.070Z,101402.55
2018-08-12T06:59:31.815Z,101395.75
2018-08-12T07:02:00.749Z,101386.48
2018-08-12T07:04:29.074Z,101398.86
2018-08-12T07:06:57.381Z,101397.98
2018-08-12T07:09:25.118Z,101401.84
2018-08-12T07:11:54.015Z,101399.35
2018-08-12T07:14:22.475Z,101407.20
2018-08-12T07:16:50.182Z,101402.32
2018-08-12T07:19:19.080Z,101408.12
2018-08-12T07:21:47.399Z,101402.72
2018-08-12T07:24:15.142Z,101408.41
2018-08-12T07:26:43.768Z,101414.59
2018-08-12T07:29:12.659Z,101412.83
2018-08-12T07:31:40.400Z,101409.38
2018-08-12T07:34:08.734Z,101406.55
2018-08-12T07:36:37.052Z,101414.95
2018-08-12T07:39:05.981Z,101410.13
2018-08-12T07:41:34.329Z,101429.05
2018-08-12T07:44:02.657Z,101413.80
2018-08-12T07:46:30.987Z,101414.59
2018-08-12T07:48:59.306Z,101429.80
2018-08-12T07:51:27.044Z,101422.60
2018-08-12T07:53:55.946Z,101434.03
2018-08-12T07:56:24.264Z,101443.63
2018-08-12T07:58:52.582Z,101445.42
2018-08-12T08:01:21.038Z,101450.78
2018-08-12T08:03:49.356Z,101432.22
2018-08-12T08:06:17.713Z,101448.24
2018-08-12T08:08:45.441Z,101449.97
2018-08-12T08:11:14.579Z,101447.14
2018-08-12T08:13:42.905Z,101454.42
2018-08-12T08:16:11.231Z,101462.92
2018-08-12T08:18:39.568Z,101454.14
2018-08-12T08:21:10.857Z,101482.91
2018-08-12T08:23:39.182Z,101465.85
2018-08-12T08:26:07.509Z,101458.70
2018-08-12T08:28:35.890Z,101460.84
2018-08-12T08:31:03.778Z,101454.01
2018-08-12T08:33:31.964Z,101457.41
2018-08-12T08:36:00.865Z,101459.22
2018-08-12T08:38:28.609Z,101470.81
2018-08-12T08:40:57.508Z,101458.09
2018-08-12T08:43:25.862Z,101456.95
2018-08-12T08:45:54.504Z,101460.75
2018-08-12T08:48:22.841Z,101465.55
2018-08-12T08:50:51.168Z,101461.64
2018-08-12T08:53:18.929Z,101475.72
2018-08-12T08:55:47.958Z,101484.06
2018-08-12T08:58:16.265Z,101469.62
2018-08-12T09:00:44.584Z,101463.80
2018-08-12T09:03:12.913Z,101476.25
2018-08-12T09:05:41.483Z,101470.00
2018-08-12T09:08:09.640Z,101472.66
2018-08-12T09:10:37.305Z,101473.87
2018-08-12T09:13:06.207Z,101478.77
2018-08-12T09:15:34.569Z,101458.50
2018-08-12T09:18:02.322Z,101473.09
2018-08-12T09:20:31.441Z,101508.16
2018-08-12T09:22:58.952Z,101488.27
2018-08-12T09:25:27.854Z,101467.59
2018-08-12T09:27:56.170Z,101468.55
2018-08-12T09:30:24.554Z,101467.41
2018-08-12T09:32:52.869Z,101473.85
2018-08-12T09:35:21.206Z,101475.72
2018-08-12T09:37:50.971Z,101501.14
2018-08-12T09:40:17.863Z,101479.48
2018-08-12T09:42:46.192Z,101493.23
2018-08-12T09:45:14.673Z,101479.76
2018-08-12T09:47:42.413Z,101479.12
2018-08-12T09:50:11.325Z,101480.94
2018-08-12T09:52:39.662Z,101500.41
2018-08-12T09:55:07.981Z,101497.81
2018-08-12T09:57:36.322Z,101492.73
2018-08-12T10:00:04.645Z,101470.08
2018-08-12T10:02:32.963Z,101481.67
2018-08-12T10:05:01.275Z,101486.00
2018-08-12T10:07:29.054Z,101473.92
2018-08-12T10:09:57.358Z,101472.00
2018-08-12T10:12:26.259Z,101476.38
2018-08-12T10:14:54.016Z,101470.27
2018-08-12T10:17:22.915Z,101466.07
2018-08-12T10:19:51.235Z,101475.67
2018-08-12T10:22:19.596Z,101473.98
2018-08-12T10:24:47.930Z,101463.78
2018-08-12T10:27:16.254Z,101468.38
2018-08-12T10:29:44.627Z,101471.86
2018-08-12T10:32:12.999Z,101484.55
2018-08-12T10:34:40.745Z,101476.64
2018-08-12T10:37:09.684Z,101475.80
2018-08-12T10:39:38.052Z,101476.45
2018-08-12T10:42:05.802Z,101486.62
2018-08-12T10:44:34.768Z,101517.41
2018-08-12T10:47:03.129Z,101492.43
2018-08-12T10:49:30.926Z,101489.34
2018-08-12T10:52:00.497Z,101486.52
2018-08-12T10:54:27.861Z,101496.58
2018-08-12T10:56:56.201Z,101481.75
2018-08-12T10:59:25.215Z,101485.36
2018-08-12T11:01:53.506Z,101497.02
2018-08-12T11:04:21.851Z,101488.37
2018-08-12T11:06:51.123Z,101492.73
2018-08-12T11:09:19.480Z,101477.12
2018-08-12T11:11:47.669Z,101476.56
2018-08-12T11:14:15.605Z,101485.45
2018-08-12T11:16:43.977Z,101487.95
2018-08-12T11:19:12.293Z,101479.16
2018-08-12T11:21:41.248Z,101490.38
2018-08-12T11:24:09.574Z,101490.82
2018-08-12T11:26:37.345Z,101489.94
2018-08-12T11:29:06.269Z,101477.13
2018-08-12T11:31:34.599Z,101481.96
2018-08-12T11:34:03.067Z,101501.79
2018-08-12T11:36:31.433Z,101500.08
2018-08-12T11:38:59.792Z,101489.66
2018-08-12T11:41:27.538Z,101490.22
2018-08-12T11:43:56.646Z,101490.84
2018-08-12T11:46:25.094Z,101491.47
2018-08-12T11:48:54.393Z,101482.17
2018-08-12T11:51:22.162Z,101494.16
2018-08-12T11:53:51.136Z,101479.80
2018-08-12T11:56:19.466Z,101490.28
2018-08-12T11:58:47.780Z,101480.02
2018-08-12T12:01:16.119Z,101488.98
2018-08-12T12:03:44.487Z,101474.73
2018-08-12T12:06:12.830Z,101508.08
2018-08-12T12:08:41.209Z,101469.59
2018-08-12T12:11:09.539Z,101494.77
2018-08-12T12:13:37.855Z,101462.27
2018-08-12T12:16:06.251Z,101468.30
2018-08-12T12:18:34.077Z,101474.97
2018-08-12T12:21:02.981Z,101473.11
2018-08-12T12:23:31.396Z,101459.84
2018-08-12T12:25:59.654Z,101460.45
2018-08-12T12:28:28.002Z,101445.28
2018-08-12T12:30:55.741Z,101461.59
2018-08-12T12:33:24.638Z,101451.67
2018-08-12T12:35:52.968Z,101464.41
2018-08-12T12:38:20.779Z,101463.78
2018-08-12T12:40:49.709Z,101460.64
2018-08-12T12:43:17.437Z,101458.94
2018-08-12T12:45:46.346Z,101455.97
2018-08-12T12:48:14.667Z,101462.98
2018-08-12T12:50:42.520Z,101462.14
2018-08-12T12:53:11.450Z,101450.45
2018-08-12T12:55:40.694Z,101455.31
2018-08-12T12:58:08.369Z,101449.36
2018-08-12T13:00:36.638Z,101449.06
2018-08-12T13:03:04.971Z,101445.12
2018-08-12T13:05:33.639Z,101445.25
2018-08-12T13:08:01.918Z,101445.42
2018-08-12T13:10:30.260Z,101448.22
2018-08-12T13:12:58.940Z,101450.66
2018-08-12T13:15:27.833Z,101452.20
2018-08-12T13:17:56.153Z,101454.94
2018-08-12T13:20:24.568Z,101450.86
2018-08-12T13:22:52.917Z,101448.40
2018-08-12T13:25:21.247Z,101448.23
2018-08-12T13:27:48.980Z,101443.88
2018-08-12T13:30:18.088Z,101438.87
2018-08-12T13:32:46.411Z,101444.08
2018-08-12T13:35:14.722Z,101440.05
2018-08-12T13:37:43.093Z,101435.27
2018-08-12T13:40:10.972Z,101439.09
2018-08-12T13:42:39.322Z,101439.62
2018-08-12T13:45:08.233Z,101435.27
2018-08-12T13:47:36.565Z,101436.98
2018-08-12T13:50:05.818Z,101428.75
2018-08-12T13:52:33.986Z,101428.12
2018-08-12T13:55:02.129Z,101428.19
2018-08-12T13:57:31.044Z,101429.73
2018-08-12T13:59:58.818Z,101430.70
2018-08-12T14:02:27.762Z,101433.18
2018-08-12T14:04:56.069Z,101422.67
2018-08-12T14:07:23.810Z,101433.77
2018-08-12T14:09:52.715Z,101432.32
2018-08-12T14:12:21.107Z,101428.92
2018-08-12T14:14:49.450Z,101430.72
2018-08-12T14:17:17.766Z,101431.46
2018-08-12T14:19:46.128Z,101430.18
2018-08-12T14:22:13.891Z,101438.62
2018-08-12T14:24:42.210Z,101426.64
2018-08-12T14:27:12.079Z,101419.89
2018-08-12T14:29:39.502Z,101423.41
2018-08-12T14:32:07.622Z,101416.66
2018-08-12T14:34:36.548Z,101416.83
2018-08-12T14:37:04.881Z,101411.16
2018-08-12T14:39:33.314Z,101417.13
2018-08-12T14:42:01.674Z,101405.31
2018-08-12T14:44:30.022Z,101406.53
2018-08-12T14:46:58.330Z,101411.59
2018-08-12T14:49:26.637Z,101413.20
2018-08-12T14:51:54.961Z,101411.53
2018-08-12T14:54:23.314Z,101405.80
2018-08-12T14:56:51.060Z,101404.48
2018-08-12T14:59:19.960Z,101406.66
2018-08-12T15:01:47.745Z,101400.57
2018-08-12T15:04:16.640Z,101401.77
2018-08-12T15:06:44.516Z,101410.45
2018-08-12T15:09:13.355Z,101401.92
2018-08-12T15:11:41.680Z,101395.74
2018-08-12T15:14:09.998Z,101399.52
2018-08-12T15:16:37.735Z,101397.57
2018-08-12T15:19:06.073Z,101394.99
2018-08-12T15:21:34.990Z,101394.61
2018-08-12T15:24:02.831Z,101390.81
2018-08-12T15:26:31.711Z,101394.89
2018-08-12T15:29:00.025Z,101387.48
2018-08-12T15:31:28.403Z,101390.33
2018-08-12T15:33:56.738Z,101388.78
2018-08-12T15:36:25.076Z,101384.34
2018-08-12T15:38:53.391Z,101384.00
2018-08-12T15:41:21.737Z,101383.75
2018-08-12T15:43:50.063Z,101383.86
2018-08-12T15:46:18.436Z,101381.77
2018-08-12T15:48:46.761Z,101377.92
2018-08-12T15:54:48.185Z,101371.26
2018-08-12T15:57:16.511Z,101366.68
2018-08-12T15:59:44.869Z,101368.61
2018-08-12T16:02:13.228Z,101368.21
2018-08-12T16:04:40.961Z,101366.71
2018-08-12T16:07:10.242Z,101361.20
2018-08-12T16:09:39.166Z,101369.37
2018-08-12T16:12:06.905Z,101362.56
2018-08-12T16:14:35.869Z,101360.76
2018-08-12T16:17:04.190Z,101363.30
2018-08-12T16:19:31.933Z,101364.17
2018-08-12T16:22:00.871Z,101359.22
2018-08-12T16:24:29.204Z,101355.91
2018-08-12T16:26:57.591Z,101359.86
2018-08-12T16:29:25.959Z,101360.84
2018-08-12T16:31:54.288Z,101361.42
2018-08-12T16:34:22.650Z,101366.97
2018-08-12T16:36:50.962Z,101365.30
2018-08-12T16:39:19.297Z,101367.12
2018-08-12T16:41:47.639Z,101365.97
2018-08-12T16:44:15.978Z,101366.70
2018-08-12T16:46:43.754Z,101366.08
2018-08-12T16:49:12.685Z,101363.67
2018-08-12T16:51:40.418Z,101363.98
2018-08-12T16:54:09.316Z,101362.04
2018-08-12T16:56:37.692Z,101360.17
2018-08-12T16:59:05.462Z,101356.84
2018-08-12T17:01:33.785Z,101356.76
2018-08-12T17:04:02.696Z,101357.18
2018-08-12T17:06:31.016Z,101356.98
2018-08-12T17:08:59.331Z,101356.16
2018-08-12T17:11:27.663Z,101351.77
2018-08-12T17:13:56.013Z,101349.04
2018-08-12T17:16:24.397Z,101348.13
2018-08-12T17:18:53.260Z,101350.08
2018-08-12T17:21:21.001Z,101350.18
2018-08-12T17:23:49.386Z,101349.98
2018-08-12T17:26:17.943Z,101347.94
2018-08-12T17:28:46.883Z,101346.42
2018-08-12T17:31:15.266Z,101350.66
2018-08-12T17:33:43.006Z,101352.35
2018-08-12T17:36:11.373Z,101349.34
2018-08-12T17:38:39.695Z,101352.37
2018-08-12T17:41:08.001Z,101350.82
2018-08-12T17:43:37.133Z,101353.85
2018-08-12T17:46:05.251Z,101344.03
2018-08-12T17:48:33.681Z,101338.64
2018-08-12T17:51:02.255Z,101333.00
2018-08-12T17:53:30.615Z,101330.83
2018-08-12T17:55:58.977Z,101326.14
2018-08-12T17:58:27.308Z,101325.91
2018-08-12T18:00:55.691Z,101326.26
2018-08-12T18:03:24.088Z,101327.14
2018-08-12T18:05:52.416Z,101335.75
2018-08-12T18:08:20.791Z,101334.37
2018-08-12T18:10:48.529Z,101334.45
2018-08-12T18:13:16.893Z,101330.19
2018-08-12T18:15:45.988Z,101326.28
2018-08-12T18:18:13.733Z,101328.02
2018-08-12T18:20:42.635Z,101332.84
2018-08-12T18:23:10.948Z,101331.81
2018-08-12T18:25:39.514Z,101340.14
2018-08-12T18:28:07.841Z,101340.50
2018-08-12T18:30:35.627Z,101334.31
2018-08-12T18:33:04.546Z,101328.70
2018-08-12T18:35:32.960Z,101323.92
2018-08-12T18:38:01.303Z,101323.26
2018-08-12T18:40:29.670Z,101325.18
2018-08-12T18:42:58.025Z,101323.58
2018-08-12T18:45:25.829Z,101329.00
2018-08-12T18:47:54.153Z,101329.88
2018-08-12T18:50:23.079Z,101332.06
2018-08-12T18:52:51.412Z,101332.27
2018-08-12T18:55:19.224Z,101330.83
2018-08-12T18:57:48.179Z,101326.13
2018-08-12T19:00:15.946Z,101321.94
2018-08-12T19:02:44.867Z,101322.73
2018-08-12T19:05:13.214Z,101321.92
2018-08-12T19:07:41.621Z,101319.78
2018-08-12T19:10:09.360Z,101316.34
2018-08-12T19:12:38.299Z,101312.88
2018-08-12T19:15:06.626Z,101310.20
2018-08-12T19:17:34.974Z,101308.09
2018-08-12T19:20:03.301Z,101311.20
2018-08-12T19:22:31.678Z,101306.91
2018-08-12T19:25:00.078Z,101303.06
2018-08-12T19:27:28.797Z,101303.14
2018-08-12T19:29:57.119Z,101297.67
2018-08-12T19:32:25.582Z,101294.36
2018-08-12T19:34:53.905Z,101290.52
2018-08-12T19:37:22.539Z,101286.69
2018-08-12T19:39:50.882Z,101287.63
2018-08-12T19:42:19.215Z,101285.89
2018-08-12T19:44:47.577Z,101286.27
2018-08-12T19:47:15.306Z,101283.70
2018-08-12T19:49:44.231Z,101281.49
2018-08-12T19:52:12.034Z,101285.41
2018-08-12T19:54:40.955Z,101279.25
2018-08-12T19:57:09.302Z,101281.30
2018-08-12T19:59:37.623Z,101283.28
2018-08-12T20:02:05.581Z,101286.73
2018-08-12T20:04:34.493Z,101282.43
2018-08-12T20:07:02.861Z,101279.56
2018-08-12T20:09:31.187Z,101279.73
2018-08-12T20:11:59.276Z,101272.27
2018-08-12T20:14:27.536Z,101270.45
2018-08-12T20:16:55.968Z,101272.55
2018-08-12T20:19:25.142Z,101268.55
2018-08-12T20:21:53.279Z,101266.72
2018-08-12T20:24:21.613Z,101266.29
2018-08-12T20:26:49.950Z,101260.50
2018-08-12T20:29:17.691Z,101260.48
2018-08-12T20:31:46.597Z,101254.69
2018-08-12T20:34:14.955Z,101256.64
2018-08-12T20:36:43.268Z,101253.15
2018-08-12T20:39:11.419Z,101256.16
2018-08-12T20:41:39.960Z,101254.05
2018-08-12T20:44:08.292Z,101252.39
2018-08-12T20:46:36.064Z,101253.16
2018-08-12T20:49:04.982Z,101249.66
2018-08-12T20:51:33.302Z,101249.81
2018-08-12T20:54:01.674Z,101254.39
2018-08-12T20:56:30.025Z,101249.55
2018-08-12T20:58:57.938Z,101245.99
2018-08-12T21:01:26.834Z,101246.07
2018-08-12T21:03:54.694Z,101243.31
2018-08-12T21:06:23.600Z,101239.01
2018-08-12T21:08:51.447Z,101238.11
2018-08-12T21:11:20.299Z,101237.91
2018-08-12T21:13:48.652Z,101236.82
2018-08-12T21:16:17.014Z,101240.00
2018-08-12T21:18:45.313Z,101239.15
2018-08-12T21:21:13.629Z,101238.58
2018-08-12T21:23:41.962Z,101232.19
2018-08-12T21:26:10.368Z,101229.69
2018-08-12T21:28:38.048Z,101230.91
2018-08-12T21:31:07.810Z,101231.83
2018-08-12T21:33:36.530Z,101228.94
2018-08-12T21:36:03.887Z,101229.20
2018-08-12T21:38:32.790Z,101227.13
2018-08-12T21:41:01.133Z,101227.83
2018-08-12T21:43:29.451Z,101226.11
2018-08-12T21:45:57.221Z,101225.02
2018-08-12T21:48:26.119Z,101221.98
2018-08-12T21:50:54.444Z,101223.70
2018-08-12T21:53:22.771Z,101226.16
2018-08-12T21:55:51.115Z,101225.21
2018-08-12T21:58:19.554Z,101220.23
2018-08-12T22:00:47.835Z,101221.00
2018-08-12T22:03:15.573Z,101210.44
2018-08-12T22:05:44.529Z,101213.09
2018-08-12T22:08:12.851Z,101211.25
2018-08-12T22:10:41.171Z,101209.34
2018-08-12T22:13:08.964Z,101213.63
2018-08-12T22:15:37.816Z,101212.97
2018-08-12T22:18:05.554Z,101214.16
2018-08-12T22:20:34.464Z,101216.55
2018-08-12T22:23:02.780Z,101211.55
2018-08-12T22:25:30.517Z,101213.73
2018-08-12T22:27:59.424Z,101219.95
2018-08-12T22:30:27.743Z,101221.28
2018-08-12T22:32:56.059Z,101221.44
2018-08-12T22:35:24.387Z,101222.95
2018-08-12T22:37:52.121Z,101217.47
2018-08-12T22:40:21.017Z,101209.73
2018-08-12T22:42:49.341Z,101213.66
2018-08-12T22:45:17.666Z,101210.81
2018-08-12T22:47:45.974Z,101205.90
2018-08-12T22:50:14.287Z,101203.25
2018-08-12T22:52:42.613Z,101201.06
2018-08-12T22:55:10.937Z,101209.66
2018-08-12T22:57:38.668Z,101214.16
2018-08-12T23:00:07.574Z,101223.03
2018-08-12T23:02:35.310Z,101215.07
2018-08-12T23:05:04.201Z,101206.23
2018-08-12T23:07:32.548Z,101209.91
2018-08-12T23:10:00.882Z,101203.60
2018-08-12T23:12:29.218Z,101202.84
2018-08-12T23:14:57.544Z,101201.03
2018-08-12T23:17:25.281Z,101201.27
2018-08-12T23:19:53.612Z,101201.40
2018-08-12T23:22:22.514Z,101200.70
2018-08-12T23:24:50.826Z,101200.81
2018-08-12T23:27:18.568Z,101193.86
2018-08-12T23:29:47.465Z,101195.02
2018-08-12T23:32:15.784Z,101192.57
2018-08-12T23:34:44.108Z,101179.05
2018-08-12T23:37:12.422Z,101178.12
2018-08-12T23:39:40.159Z,101176.48
2018-08-12T23:42:09.067Z,101175.17
2018-08-12T23:44:37.378Z,101169.36
2018-08-12T23:47:05.120Z,101163.36
2018-08-12T23:49:34.026Z,101157.64
2018-08-12T23:52:02.352Z,101155.19
2018-08-12T23:54:30.670Z,101162.81
2018-08-12T23:56:59.002Z,101164.41
2018-08-12T23:59:26.739Z,101168.04
